In Rescue
 
Open Full Screen Window  High Contrast Mode
Wind Gusting 00 knots
09
June 22, 2024 7:51 PM CDT
Present Weather: Rain
Weather Information
Wind Direction
  350 °
Wind Speed
  09 kt (10 mph)
Wind Gust
  00 kt (0 mph)
Altimeter
29.81 in
Visibility
7 SM
Temperature
13° C
55° F
Dewpoint
12° C
54° F
Humidity
94%
1hr Rain Fall
00.13 in.
24hr Rain Fall
00.22 in.
Sky Condition
Overcast @ 2,400 ft
Broken @ 1,100 ft
Broken @ 500 ft
IFR

METAR KROS 230051Z AUTO 35009KT 7SM RA BKN005 BKN011 OVC024 13/12 A2981 RMK AO2 P0013 T01340119

FAA Disclaimer: The data displayed is for advisory purposes only and is not to be used for flight planning or operations.